Rogue River, Oregon
Current Conditions -  °F | °C
As of 11:56 AM on Monday 22 Dec 2014 (Local Time) from KSXT Reporting Station
Moderate Fog Moderate Fog  
Wind Chill: 47°   Ceiling: 200
Heat Index: 47°   Visibility: 0.25mi
Dew Point: 47°   Wind: 3mph
Humidity: 100%   Direction: NA
Pressure: 30.35"   Gusts: NA
Location:  42.44°N, 123.17°W
Report Text: KSXT 221956Z AUTO VRB03KT 1/4SM FG VV002 08/08 A3035 RMK AO2 SLP271 T00830083
Loading
Personal Weather Stations






























Interactive Weather Map New forecast layout! Learn more

10-Day Weather Forecast

Advertisements
Track Severe Weather on mobile